Pagina principale
METAR-TAF:

METAR-TAF

Aeroporti :

Aeroporto di Amendola

Foggia, Italia

latitudine: 41-32N, longitudine: 015-43E, altezza: 57 m

Osservazione

Il bollettino è stato emesso 58 minuti fa, alle 01:55 UTC
Vento 7 kt da ovest/sud-ovest
Temperature 8°C
Umidità 93%
Pressione 1022 hPa
Visibilità 10 km o più
nessuna nube inferiore a 1500 m e nessun cumulonembo

METAR: LIBA 240155Z 24007KT CAVOK 08/07 Q1022 RMK SCT SCT200 VIS MIN 9999 WIND THR11 27005KT WIND THR29 /////KT BLU

Ora: 03:53 (02:53 UTC)

Previsione

Il bollettino è stato emesso 53 minuti fa, alle 02:00 UTC
Previsione valida dal 24 alle 03 UTC al 24 alle 12 UTC
Vento 5 kt da ovest/sud-ovest
Visibilità 10 km o più
nessuna nube inferiore a 1500 m e nessun cumulonembo
Evoluzione graduale
dal 24 alle 07 UTC al 24 alle 09 UTC
Vento 5 kt da ovest

TAF: LIBA 240200Z 2403/2412 24005KT CAVOK BECMG 2407/2409 28005KT

Osservazioni e previsioni meteorologiche di più di 4000 aeroporti (messaggi METAR e TAF).

Le stazioni disponibili sono rappresentate dai dischi gialli e rossi sulla carta.

Puntare il mouse per vedere il nome della stazione.

Clicca sopra per visualizzare le osservazioni e previsioni meteorologiche.

Per cambiare la mappa : fare clic sui pulsanti verdi con una croce nera per ingrandire, il pulsante verde con un trattino per diminuire, o sulla freccia verde per le mappe adiacenti.


METAR-TAF: